sensor_id;sensor_type;location;lat;lon;timestamp;pressure;altitude;pressure_sealevel;temperature;humidity
26443;BME280;5563;52.296;6.806;2023-04-08T00:02:08;102134.22;;;3.54;86.47
26443;BME280;5563;52.296;6.806;2023-04-08T00:04:41;102146.53;;;3.54;86.64
26443;BME280;5563;52.296;6.806;2023-04-08T00:07:15;102150.34;;;3.45;86.45
26443;BME280;5563;52.296;6.806;2023-04-08T00:09:42;102147.03;;;3.39;86.84
26443;BME280;5563;52.296;6.806;2023-04-08T00:12:16;102155.97;;;3.33;86.31
26443;BME280;5563;52.296;6.806;2023-04-08T00:14:43;102158.06;;;3.22;86.63
26443;BME280;5563;52.296;6.806;2023-04-08T00:17:17;102150.44;;;3.13;86.58
26443;BME280;5563;52.296;6.806;2023-04-08T00:19:57;102153.22;;;3.08;86.79
26443;BME280;5563;52.296;6.806;2023-04-08T00:22:31;102156.94;;;3.01;86.80
26443;BME280;5563;52.296;6.806;2023-04-08T00:25:11;102147.59;;;2.90;86.80
26443;BME280;5563;52.296;6.806;2023-04-08T00:27:38;102152.97;;;2.87;87.46
26443;BME280;5563;52.296;6.806;2023-04-08T00:30:12;102158.28;;;2.85;87.43
26443;BME280;5563;52.296;6.806;2023-04-08T00:32:41;102157.50;;;2.82;87.05
26443;BME280;5563;52.296;6.806;2023-04-08T00:35:08;102166.50;;;2.73;87.49
26443;BME280;5563;52.296;6.806;2023-04-08T00:37:41;102166.72;;;2.66;87.39
26443;BME280;5563;52.296;6.806;2023-04-08T00:40:09;102161.63;;;2.60;87.32
26443;BME280;5563;52.296;6.806;2023-04-08T00:42:43;102175.75;;;2.57;87.78
26443;BME280;5563;52.296;6.806;2023-04-08T00:45:17;102174.13;;;2.52;87.37
26443;BME280;5563;52.296;6.806;2023-04-08T00:47:44;102183.88;;;2.48;87.66
26443;BME280;5563;52.296;6.806;2023-04-08T00:50:18;102174.38;;;2.43;87.34
26443;BME280;5563;52.296;6.806;2023-04-08T00:52:52;102173.59;;;2.39;87.49
26443;BME280;5563;52.296;6.806;2023-04-08T00:55:25;102171.88;;;2.37;87.57
26443;BME280;5563;52.296;6.806;2023-04-08T00:57:58;102170.31;;;2.30;87.82
26443;BME280;5563;52.296;6.806;2023-04-08T01:00:33;102173.88;;;2.29;87.51
26443;BME280;5563;52.296;6.806;2023-04-08T01:03:15;102183.63;;;2.23;87.41
26443;BME280;5563;52.296;6.806;2023-04-08T01:05:59;102180.19;;;2.22;87.63
26443;BME280;5563;52.296;6.806;2023-04-08T01:08:37;102182.03;;;2.16;87.45
26443;BME280;5563;52.296;6.806;2023-04-08T01:11:09;102181.25;;;2.14;87.72
26443;BME280;5563;52.296;6.806;2023-04-08T01:13:44;102177.84;;;2.09;87.77
26443;BME280;5563;52.296;6.806;2023-04-08T01:16:14;102173.69;;;2.01;87.71
26443;BME280;5563;52.296;6.806;2023-04-08T01:18:49;102182.34;;;2.04;87.98
26443;BME280;5563;52.296;6.806;2023-04-08T01:21:31;102184.19;;;2.01;87.87
26443;BME280;5563;52.296;6.806;2023-04-08T01:24:19;102182.63;;;1.94;87.79
26443;BME280;5563;52.296;6.806;2023-04-08T01:26:56;102190.63;;;1.89;87.87
26443;BME280;5563;52.296;6.806;2023-04-08T01:29:25;102195.16;;;1.84;88.19
26443;BME280;5563;52.296;6.806;2023-04-08T01:31:59;102192.59;;;1.80;88.20
26443;BME280;5563;52.296;6.806;2023-04-08T01:34:28;102195.19;;;1.81;88.55
26443;BME280;5563;52.296;6.806;2023-04-08T01:37:03;102190.06;;;1.77;88.27
26443;BME280;5563;52.296;6.806;2023-04-08T01:39:37;102192.78;;;1.72;88.00
26443;BME280;5563;52.296;6.806;2023-04-08T01:42:05;102194.59;;;1.69;88.41
26443;BME280;5563;52.296;6.806;2023-04-08T01:44:39;102190.22;;;1.69;88.46
26443;BME280;5563;52.296;6.806;2023-04-08T01:47:13;102200.75;;;1.69;88.40
26443;BME280;5563;52.296;6.806;2023-04-08T01:49:48;102198.16;;;1.68;88.10
26443;BME280;5563;52.296;6.806;2023-04-08T01:52:17;102205.19;;;1.66;88.19
26443;BME280;5563;52.296;6.806;2023-04-08T01:54:52;102194.06;;;1.55;88.28
26443;BME280;5563;52.296;6.806;2023-04-08T01:57:31;102194.81;;;1.61;87.82
26443;BME280;5563;52.296;6.806;2023-04-08T02:00:03;102201.91;;;1.56;88.10
26443;BME280;5563;52.296;6.806;2023-04-08T02:02:37;102205.31;;;1.61;87.89
26443;BME280;5563;52.296;6.806;2023-04-08T02:05:07;102207.78;;;1.67;87.92
26443;BME280;5563;52.296;6.806;2023-04-08T02:07:41;102202.44;;;1.72;87.81
26443;BME280;5563;52.296;6.806;2023-04-08T02:10:09;102200.75;;;1.69;87.09
26443;BME280;5563;52.296;6.806;2023-04-08T02:12:43;102198.16;;;1.68;87.41
26443;BME280;5563;52.296;6.806;2023-04-08T02:15:17;102199.91;;;1.67;87.44
26443;BME280;5563;52.296;6.806;2023-04-08T02:17:54;102202.63;;;1.64;87.55
26443;BME280;5563;52.296;6.806;2023-04-08T02:20:33;102207.03;;;1.62;87.67
26443;BME280;5563;52.296;6.806;2023-04-08T02:23:19;102203.41;;;1.68;87.31
26443;BME280;5563;52.296;6.806;2023-04-08T02:25:54;102212.28;;;1.62;87.04
26443;BME280;5563;52.296;6.806;2023-04-08T02:28:29;102209.88;;;1.53;87.40
26443;BME280;5563;52.296;6.806;2023-04-08T02:31:04;102210.69;;;1.55;87.55
26443;BME280;5563;52.296;6.806;2023-04-08T02:33:41;102209.78;;;1.58;87.51
26443;BME280;5563;52.296;6.806;2023-04-08T02:36:09;102221.22;;;1.55;87.42
26443;BME280;5563;52.296;6.806;2023-04-08T02:38:48;102212.66;;;1.47;87.67
26443;BME280;5563;52.296;6.806;2023-04-08T02:41:16;102219.47;;;1.56;87.67
26443;BME280;5563;52.296;6.806;2023-04-08T02:43:49;102226.47;;;1.55;87.42
26443;BME280;5563;52.296;6.806;2023-04-08T02:46:27;102227.38;;;1.54;87.47
26443;BME280;5563;52.296;6.806;2023-04-08T02:48:54;102223.75;;;1.58;87.98
26443;BME280;5563;52.296;6.806;2023-04-08T02:51:27;102220.34;;;1.55;87.89
26443;BME280;5563;52.296;6.806;2023-04-08T02:54:01;102217.75;;;1.53;87.49
26443;BME280;5563;52.296;6.806;2023-04-08T02:56:28;102233.44;;;1.58;87.46
26443;BME280;5563;52.296;6.806;2023-04-08T02:59:01;102236.22;;;1.50;87.05
26443;BME280;5563;52.296;6.806;2023-04-08T03:01:34;102242.31;;;1.52;87.56
26443;BME280;5563;52.296;6.806;2023-04-08T03:04:01;102239.63;;;1.55;87.71
26443;BME280;5563;52.296;6.806;2023-04-08T03:06:35;102245.56;;;1.63;87.78
26443;BME280;5563;52.296;6.806;2023-04-08T03:09:09;102235.03;;;1.65;87.49
26443;BME280;5563;52.296;6.806;2023-04-08T03:11:42;102243.59;;;1.73;87.34
26443;BME280;5563;52.296;6.806;2023-04-08T03:14:10;102240.09;;;1.72;87.40
26443;BME280;5563;52.296;6.806;2023-04-08T03:16:44;102247.06;;;1.75;87.02
26443;BME280;5563;52.296;6.806;2023-04-08T03:19:11;102244.44;;;1.75;87.18
26443;BME280;5563;52.296;6.806;2023-04-08T03:21:51;102240.09;;;1.74;86.98
26443;BME280;5563;52.296;6.806;2023-04-08T03:24:18;102239.25;;;1.72;86.90
26443;BME280;5563;52.296;6.806;2023-04-08T03:26:52;102238.38;;;1.71;86.83
26443;BME280;5563;52.296;6.806;2023-04-08T03:29:19;102242.81;;;1.69;86.88
26443;BME280;5563;52.296;6.806;2023-04-08T03:31:52;102241.88;;;1.72;86.76
26443;BME280;5563;52.296;6.806;2023-04-08T03:34:25;102238.50;;;1.65;86.88
26443;BME280;5563;52.296;6.806;2023-04-08T03:36:52;102249.81;;;1.69;87.07
26443;BME280;5563;52.296;6.806;2023-04-08T03:39:25;102243.72;;;1.67;86.97
26443;BME280;5563;52.296;6.806;2023-04-08T03:41:52;102242.88;;;1.66;87.09
26443;BME280;5563;52.296;6.806;2023-04-08T03:44:26;102239.50;;;1.61;86.86
26443;BME280;5563;52.296;6.806;2023-04-08T03:46:59;102255.25;;;1.61;86.83
26443;BME280;5563;52.296;6.806;2023-04-08T03:49:32;102261.38;;;1.62;86.95
26443;BME280;5563;52.296;6.806;2023-04-08T03:51:59;102252.69;;;1.58;87.06
26443;BME280;5563;52.296;6.806;2023-04-08T03:54:32;102257.22;;;1.52;86.78
26443;BME280;5563;52.296;6.806;2023-04-08T03:56:59;102255.53;;;1.48;86.99
26443;BME280;5563;52.296;6.806;2023-04-08T03:59:32;102258.16;;;1.48;87.15
26443;BME280;5563;52.296;6.806;2023-04-08T04:01:59;102254.69;;;1.47;87.30
26443;BME280;5563;52.296;6.806;2023-04-08T04:04:33;102259.94;;;1.46;87.33
26443;BME280;5563;52.296;6.806;2023-04-08T04:07:08;102256.47;;;1.45;87.27
26443;BME280;5563;52.296;6.806;2023-04-08T04:09:41;102256.53;;;1.42;87.71
26443;BME280;5563;52.296;6.806;2023-04-08T04:12:08;102259.13;;;1.45;87.55
26443;BME280;5563;52.296;6.806;2023-04-08T04:14:42;102266.09;;;1.46;87.37
26443;BME280;5563;52.296;6.806;2023-04-08T04:17:09;102267.00;;;1.45;87.80
26443;BME280;5563;52.296;6.806;2023-04-08T04:19:42;102259.94;;;1.47;87.68
26443;BME280;5563;52.296;6.806;2023-04-08T04:22:15;102262.56;;;1.46;87.72
26443;BME280;5563;52.296;6.806;2023-04-08T04:24:48;102261.59;;;1.51;87.95
26443;BME280;5563;52.296;6.806;2023-04-08T04:27:22;102264.22;;;1.51;87.66
26443;BME280;5563;52.296;6.806;2023-04-08T04:29:49;102267.59;;;1.56;87.82
26443;BME280;5563;52.296;6.806;2023-04-08T04:32:22;102268.38;;;1.63;87.82
26443;BME280;5563;52.296;6.806;2023-04-08T04:34:49;102274.44;;;1.66;87.77
26443;BME280;5563;52.296;6.806;2023-04-08T04:37:22;102283.16;;;1.67;87.88
26443;BME280;5563;52.296;6.806;2023-04-08T04:39:55;102288.22;;;1.76;87.94
26443;BME280;5563;52.296;6.806;2023-04-08T04:42:22;102281.13;;;1.79;87.83
26443;BME280;5563;52.296;6.806;2023-04-08T04:44:55;102275.94;;;1.76;87.73
26443;BME280;5563;52.296;6.806;2023-04-08T04:47:22;102281.97;;;1.81;87.71
26443;BME280;5563;52.296;6.806;2023-04-08T04:49:55;102295.88;;;1.86;87.58
26443;BME280;5563;52.296;6.806;2023-04-08T04:52:22;102296.66;;;1.90;87.92
26443;BME280;5563;52.296;6.806;2023-04-08T04:54:56;102291.44;;;1.88;87.84
26443;BME280;5563;52.296;6.806;2023-04-08T04:57:23;102291.34;;;1.93;88.07
26443;BME280;5563;52.296;6.806;2023-04-08T04:59:57;102293.84;;;1.99;88.25
26443;BME280;5563;52.296;6.806;2023-04-08T05:02:24;102288.44;;;2.05;88.15
26443;BME280;5563;52.296;6.806;2023-04-08T05:04:58;102300.59;;;2.10;88.22
26443;BME280;5563;52.296;6.806;2023-04-08T05:07:25;102298.81;;;2.12;88.10
26443;BME280;5563;52.296;6.806;2023-04-08T05:09:58;102294.38;;;2.14;88.00
26443;BME280;5563;52.296;6.806;2023-04-08T05:12:25;102286.50;;;2.13;88.01
26443;BME280;5563;52.296;6.806;2023-04-08T05:14:59;102296.88;;;2.19;88.02
26443;BME280;5563;52.296;6.806;2023-04-08T05:17:26;102299.47;;;2.20;87.93
26443;BME280;5563;52.296;6.806;2023-04-08T05:19:53;102309.91;;;2.25;87.68
26443;BME280;5563;52.296;6.806;2023-04-08T05:22:33;102302.84;;;2.26;87.88
26443;BME280;5563;52.296;6.806;2023-04-08T05:25:14;102320.22;;;2.34;88.08
26443;BME280;5563;52.296;6.806;2023-04-08T05:27:47;102312.22;;;2.39;88.23
26443;BME280;5563;52.296;6.806;2023-04-08T05:30:14;102318.13;;;2.48;88.25
26443;BME280;5563;52.296;6.806;2023-04-08T05:32:48;102321.47;;;2.55;87.76
26443;BME280;5563;52.296;6.806;2023-04-08T05:35:15;102323.09;;;2.60;87.91
26443;BME280;5563;52.296;6.806;2023-04-08T05:37:48;102323.88;;;2.64;87.81
26443;BME280;5563;52.296;6.806;2023-04-08T05:40:15;102336.72;;;2.76;87.59
26443;BME280;5563;52.296;6.806;2023-04-08T05:42:49;102338.25;;;2.84;87.72
26443;BME280;5563;52.296;6.806;2023-04-08T05:45:22;102340.75;;;2.90;87.66
26443;BME280;5563;52.296;6.806;2023-04-08T05:47:56;102343.31;;;2.93;87.26
26443;BME280;5563;52.296;6.806;2023-04-08T05:50:23;102333.63;;;2.94;87.12
26443;BME280;5563;52.296;6.806;2023-04-08T05:52:56;102338.22;;;2.87;86.95
26443;BME280;5563;52.296;6.806;2023-04-08T05:55:23;102356.59;;;2.89;86.96
26443;BME280;5563;52.296;6.806;2023-04-08T05:57:50;102347.97;;;2.82;86.75
26443;BME280;5563;52.296;6.806;2023-04-08T06:00:24;102363.78;;;2.82;87.02
26443;BME280;5563;52.296;6.806;2023-04-08T06:02:58;102363.81;;;2.81;87.25
26443;BME280;5563;52.296;6.806;2023-04-08T06:05:32;102363.69;;;2.87;87.30
26443;BME280;5563;52.296;6.806;2023-04-08T06:07:59;102363.53;;;2.91;87.56
26443;BME280;5563;52.296;6.806;2023-04-08T06:10:32;102368.63;;;2.99;87.96
26443;BME280;5563;52.296;6.806;2023-04-08T06:13:05;102361.38;;;3.08;87.57
26443;BME280;5563;52.296;6.806;2023-04-08T06:15:39;102350.03;;;3.05;87.61
26443;BME280;5563;52.296;6.806;2023-04-08T06:18:06;102371.66;;;3.17;87.60
26443;BME280;5563;52.296;6.806;2023-04-08T06:20:40;102385.44;;;3.27;87.50
26443;BME280;5563;52.296;6.806;2023-04-08T06:23:14;102379.31;;;3.26;87.19
26443;BME280;5563;52.296;6.806;2023-04-08T06:25:47;102370.66;;;3.21;87.38
26443;BME280;5563;52.296;6.806;2023-04-08T06:28:14;102373.25;;;3.24;87.33
26443;BME280;5563;52.296;6.806;2023-04-08T06:30:47;102386.41;;;3.24;87.45
26443;BME280;5563;52.296;6.806;2023-04-08T06:33:21;102384.66;;;3.23;87.45
26443;BME280;5563;52.296;6.806;2023-04-08T06:35:48;102386.47;;;3.21;87.44
26443;BME280;5563;52.296;6.806;2023-04-08T06:38:22;102374.41;;;3.13;87.90
26443;BME280;5563;52.296;6.806;2023-04-08T06:40:49;102395.81;;;3.35;87.74
26443;BME280;5563;52.296;6.806;2023-04-08T06:43:22;102391.13;;;3.46;88.23
26443;BME280;5563;52.296;6.806;2023-04-08T06:45:55;102388.09;;;3.59;88.20
26443;BME280;5563;52.296;6.806;2023-04-08T06:48:24;102386.81;;;3.74;88.20
26443;BME280;5563;52.296;6.806;2023-04-08T06:51:00;102384.75;;;3.83;87.67
26443;BME280;5563;52.296;6.806;2023-04-08T06:53:34;102383.72;;;3.89;87.63
26443;BME280;5563;52.296;6.806;2023-04-08T06:56:01;102395.78;;;3.97;87.68
26443;BME280;5563;52.296;6.806;2023-04-08T06:58:34;102384.13;;;4.06;87.66
26443;BME280;5563;52.296;6.806;2023-04-08T07:01:01;102386.47;;;4.15;87.78
26443;BME280;5563;52.296;6.806;2023-04-08T07:03:36;102395.69;;;4.31;88.21
26443;BME280;5563;52.296;6.806;2023-04-08T07:06:03;102399.47;;;4.50;87.53
26443;BME280;5563;52.296;6.806;2023-04-08T07:08:36;102397.31;;;4.63;87.55
26443;BME280;5563;52.296;6.806;2023-04-08T07:11:10;102400.28;;;4.80;87.10
26443;BME280;5563;52.296;6.806;2023-04-08T07:13:44;102401.56;;;4.94;87.24
26443;BME280;5563;52.296;6.806;2023-04-08T07:16:17;102408.00;;;5.12;86.96
26443;BME280;5563;52.296;6.806;2023-04-08T07:18:44;102415.31;;;5.30;87.00
26443;BME280;5563;52.296;6.806;2023-04-08T07:21:18;102414.84;;;5.43;86.61
26443;BME280;5563;52.296;6.806;2023-04-08T07:23:58;102417.81;;;5.59;86.11
26443;BME280;5563;52.296;6.806;2023-04-08T07:26:31;102412.25;;;5.67;85.57
26443;BME280;5563;52.296;6.806;2023-04-08T07:28:58;102417.44;;;5.70;84.68
26443;BME280;5563;52.296;6.806;2023-04-08T07:31:31;102427.75;;;5.77;84.72
26443;BME280;5563;52.296;6.806;2023-04-08T07:33:58;102418.91;;;5.78;84.65
26443;BME280;5563;52.296;6.806;2023-04-08T07:36:31;102419.38;;;5.89;84.92
26443;BME280;5563;52.296;6.806;2023-04-08T07:39:04;102420.06;;;5.96;84.83
26443;BME280;5563;52.296;6.806;2023-04-08T07:41:38;102423.13;;;6.08;84.54
26443;BME280;5563;52.296;6.806;2023-04-08T07:44:12;102427.13;;;6.18;84.26
26443;BME280;5563;52.296;6.806;2023-04-08T07:46:42;102423.22;;;6.28;84.42
26443;BME280;5563;52.296;6.806;2023-04-08T07:49:18;102417.44;;;6.40;84.73
26443;BME280;5563;52.296;6.806;2023-04-08T07:51:45;102425.84;;;6.51;84.77
26443;BME280;5563;52.296;6.806;2023-04-08T07:54:19;102420.53;;;6.51;83.86
26443;BME280;5563;52.296;6.806;2023-04-08T07:56:46;102422.22;;;6.54;84.08
26443;BME280;5563;52.296;6.806;2023-04-08T07:59:20;102430.78;;;6.61;84.57
26443;BME280;5563;52.296;6.806;2023-04-08T08:01:47;102429.88;;;6.62;83.94
26443;BME280;5563;52.296;6.806;2023-04-08T08:04:20;102436.81;;;6.64;84.02
26443;BME280;5563;52.296;6.806;2023-04-08T08:06:47;102430.50;;;6.68;84.21
26443;BME280;5563;52.296;6.806;2023-04-08T08:09:21;102442.44;;;6.78;83.81
26443;BME280;5563;52.296;6.806;2023-04-08T08:11:48;102436.97;;;6.83;83.36
26443;BME280;5563;52.296;6.806;2023-04-08T08:14:21;102447.81;;;6.98;82.83
26443;BME280;5563;52.296;6.806;2023-04-08T08:16:48;102451.38;;;7.19;83.07
26443;BME280;5563;52.296;6.806;2023-04-08T08:19:21;102453.28;;;7.37;82.19
26443;BME280;5563;52.296;6.806;2023-04-08T08:21:55;102448.38;;;7.48;81.24
26443;BME280;5563;52.296;6.806;2023-04-08T08:24:42;102444.72;;;7.50;80.19
26443;BME280;5563;52.296;6.806;2023-04-08T08:27:15;102444.59;;;7.53;80.21
26443;BME280;5563;52.296;6.806;2023-04-08T08:29:48;102449.69;;;7.58;81.18
26443;BME280;5563;52.296;6.806;2023-04-08T08:32:22;102450.44;;;7.61;81.19
26443;BME280;5563;52.296;6.806;2023-04-08T08:34:49;102434.38;;;7.64;80.81
26443;BME280;5563;52.296;6.806;2023-04-08T08:37:23;102440.41;;;7.68;80.78
26443;BME280;5563;52.296;6.806;2023-04-08T08:39:50;102438.44;;;7.73;80.89
26443;BME280;5563;52.296;6.806;2023-04-08T08:42:25;102437.75;;;7.68;80.78
26443;BME280;5563;52.296;6.806;2023-04-08T08:44:53;102458.34;;;7.83;79.98
26443;BME280;5563;52.296;6.806;2023-04-08T08:47:26;102453.50;;;7.93;79.83
26443;BME280;5563;52.296;6.806;2023-04-08T08:49:53;102470.50;;;8.07;79.47
26443;BME280;5563;52.296;6.806;2023-04-08T08:52:27;102468.75;;;8.28;80.29
26443;BME280;5563;52.296;6.806;2023-04-08T08:55:00;102465.09;;;8.49;79.42
26443;BME280;5563;52.296;6.806;2023-04-08T08:57:42;102461.13;;;8.57;77.42
26443;BME280;5563;52.296;6.806;2023-04-08T09:00:16;102455.09;;;8.54;77.09
26443;BME280;5563;52.296;6.806;2023-04-08T09:02:50;102471.56;;;8.62;76.13
26443;BME280;5563;52.296;6.806;2023-04-08T09:05:17;102464.00;;;8.71;76.99
26443;BME280;5563;52.296;6.806;2023-04-08T09:07:51;102477.72;;;9.00;76.02
26443;BME280;5563;52.296;6.806;2023-04-08T09:10:27;102473.06;;;9.22;75.66
26443;BME280;5563;52.296;6.806;2023-04-08T09:12:54;102470.75;;;9.33;73.77
26443;BME280;5563;52.296;6.806;2023-04-08T09:15:28;102470.50;;;9.37;72.71
26443;BME280;5563;52.296;6.806;2023-04-08T09:17:55;102476.38;;;9.44;74.63
26443;BME280;5563;52.296;6.806;2023-04-08T09:20:28;102483.81;;;9.54;74.30
26443;BME280;5563;52.296;6.806;2023-04-08T09:22:56;102484.06;;;9.67;73.11
26443;BME280;5563;52.296;6.806;2023-04-08T09:25:37;102475.84;;;9.71;71.65
26443;BME280;5563;52.296;6.806;2023-04-08T09:28:17;102482.91;;;9.55;71.01
26443;BME280;5563;52.296;6.806;2023-04-08T09:30:51;102486.03;;;9.46;72.16
26443;BME280;5563;52.296;6.806;2023-04-08T09:33:18;102482.25;;;9.33;72.09
26443;BME280;5563;52.296;6.806;2023-04-08T09:35:51;102469.00;;;9.32;73.19
26443;BME280;5563;52.296;6.806;2023-04-08T09:38:25;102489.63;;;9.79;72.69
26443;BME280;5563;52.296;6.806;2023-04-08T09:41:05;102487.41;;;10.22;72.58
26443;BME280;5563;52.296;6.806;2023-04-08T09:43:35;102488.28;;;10.55;71.31
26443;BME280;5563;52.296;6.806;2023-04-08T09:46:14;102484.16;;;10.65;68.14
26443;BME280;5563;52.296;6.806;2023-04-08T09:49:00;102482.53;;;10.62;69.70
26443;BME280;5563;52.296;6.806;2023-04-08T09:51:48;102480.97;;;10.74;69.21
26443;BME280;5563;52.296;6.806;2023-04-08T09:54:20;102455.19;;;10.74;66.34
26443;BME280;5563;52.296;6.806;2023-04-08T09:57:00;102444.06;;;10.66;67.83
26443;BME280;5563;52.296;6.806;2023-04-08T09:59:29;102484.09;;;10.98;66.26
26443;BME280;5563;52.296;6.806;2023-04-08T10:02:08;102461.09;;;10.79;68.09
26443;BME280;5563;52.296;6.806;2023-04-08T10:04:40;102484.00;;;10.83;67.66
26443;BME280;5563;52.296;6.806;2023-04-08T10:07:17;102467.66;;;10.74;68.49
26443;BME280;5563;52.296;6.806;2023-04-08T10:09:51;102463.28;;;10.73;67.69
26443;BME280;5563;52.296;6.806;2023-04-08T10:12:18;102468.69;;;10.87;68.44
26443;BME280;5563;52.296;6.806;2023-04-08T10:15:21;102480.06;;;10.91;68.16
26443;BME280;5563;52.296;6.806;2023-04-08T10:23:16;102474.59;;;11.08;67.52
26443;BME280;5563;52.296;6.806;2023-04-08T10:25:50;102479.34;;;11.18;66.93
26443;BME280;5563;52.296;6.806;2023-04-08T10:30:55;102477.97;;;10.96;65.78
26443;BME280;5563;52.296;6.806;2023-04-08T10:33:31;102485.28;;;10.92;66.55
26443;BME280;5563;52.296;6.806;2023-04-08T10:38:38;102471.75;;;11.26;67.12
26443;BME280;5563;52.296;6.806;2023-04-08T10:41:05;102475.63;;;11.66;65.37
26443;BME280;5563;52.296;6.806;2023-04-08T10:43:38;102477.81;;;12.03;66.30
26443;BME280;5563;52.296;6.806;2023-04-08T10:46:11;102453.38;;;12.09;64.61
26443;BME280;5563;52.296;6.806;2023-04-08T10:48:58;102476.69;;;12.63;65.84
26443;BME280;5563;52.296;6.806;2023-04-08T10:51:31;102474.03;;;13.04;64.88
26443;BME280;5563;52.296;6.806;2023-04-08T10:54:08;102473.78;;;12.94;62.62
26443;BME280;5563;52.296;6.806;2023-04-08T10:56:49;102463.28;;;12.63;62.77
26443;BME280;5563;52.296;6.806;2023-04-08T10:59:26;102463.03;;;12.54;64.69
26443;BME280;5563;52.296;6.806;2023-04-08T11:02:00;102473.97;;;12.77;63.69
26443;BME280;5563;52.296;6.806;2023-04-08T11:04:28;102453.41;;;12.92;63.42
26443;BME280;5563;52.296;6.806;2023-04-08T11:07:05;102471.91;;;13.09;63.35
26443;BME280;5563;52.296;6.806;2023-04-08T11:09:34;102468.56;;;13.20;62.92
26443;BME280;5563;52.296;6.806;2023-04-08T11:12:07;102469.84;;;13.53;62.24
26443;BME280;5563;52.296;6.806;2023-04-08T11:14:41;102476.72;;;13.70;62.39
26443;BME280;5563;52.296;6.806;2023-04-08T11:17:15;102468.81;;;13.81;60.38
26443;BME280;5563;52.296;6.806;2023-04-08T11:19:43;102478.59;;;13.94;62.05
26443;BME280;5563;52.296;6.806;2023-04-08T11:22:19;102458.66;;;13.98;60.06
26443;BME280;5563;52.296;6.806;2023-04-08T11:24:54;102474.97;;;13.95;60.74
26443;BME280;5563;52.296;6.806;2023-04-08T11:27:28;102477.41;;;13.86;60.08
26443;BME280;5563;52.296;6.806;2023-04-08T11:30:02;102471.84;;;13.37;60.63
26443;BME280;5563;52.296;6.806;2023-04-08T11:32:30;102473.88;;;13.07;60.97
26443;BME280;5563;52.296;6.806;2023-04-08T11:35:04;102480.44;;;13.01;62.91
26443;BME280;5563;52.296;6.806;2023-04-08T11:37:41;102459.72;;;12.91;62.95
26443;BME280;5563;52.296;6.806;2023-04-08T11:40:19;102461.91;;;12.84;63.60
26443;BME280;5563;52.296;6.806;2023-04-08T11:42:47;102474.63;;;12.81;62.95
26443;BME280;5563;52.296;6.806;2023-04-08T11:45:22;102471.72;;;12.57;63.56
26443;BME280;5563;52.296;6.806;2023-04-08T11:47:55;102473.75;;;12.54;64.53
26443;BME280;5563;52.296;6.806;2023-04-08T11:50:24;102463.22;;;12.51;64.19
26443;BME280;5563;52.296;6.806;2023-04-08T11:52:57;102472.66;;;12.70;64.38
26443;BME280;5563;52.296;6.806;2023-04-08T11:55:26;102482.50;;;12.84;64.49
26443;BME280;5563;52.296;6.806;2023-04-08T11:58:03;102476.13;;;12.99;63.46
26443;BME280;5563;52.296;6.806;2023-04-08T12:00:31;102464.88;;;12.94;63.78
26443;BME280;5563;52.296;6.806;2023-04-08T12:03:10;102485.22;;;13.11;63.27
26443;BME280;5563;52.296;6.806;2023-04-08T12:05:38;102473.44;;;12.99;63.36
26443;BME280;5563;52.296;6.806;2023-04-08T12:08:11;102489.28;;;13.04;64.18
26443;BME280;5563;52.296;6.806;2023-04-08T12:10:44;102487.59;;;13.15;62.74
26443;BME280;5563;52.296;6.806;2023-04-08T12:13:18;102490.81;;;13.20;62.58
26443;BME280;5563;52.296;6.806;2023-04-08T12:15:45;102487.31;;;13.20;63.21
26443;BME280;5563;52.296;6.806;2023-04-08T12:18:19;102476.94;;;13.28;61.95
26443;BME280;5563;52.296;6.806;2023-04-08T12:20:46;102488.34;;;13.44;61.81
26443;BME280;5563;52.296;6.806;2023-04-08T12:23:26;102488.44;;;13.69;62.20
26443;BME280;5563;52.296;6.806;2023-04-08T12:25:53;102473.88;;;13.73;60.78
26443;BME280;5563;52.296;6.806;2023-04-08T12:28:26;102484.56;;;13.60;60.71
26443;BME280;5563;52.296;6.806;2023-04-08T12:30:59;102478.03;;;13.38;62.60
26443;BME280;5563;52.296;6.806;2023-04-08T12:33:26;102495.59;;;13.29;61.98
26443;BME280;5563;52.296;6.806;2023-04-08T12:35:59;102490.78;;;12.93;63.61
26443;BME280;5563;52.296;6.806;2023-04-08T12:38:27;102497.97;;;12.93;64.28
26443;BME280;5563;52.296;6.806;2023-04-08T12:41:00;102476.63;;;12.91;64.19
26443;BME280;5563;52.296;6.806;2023-04-08T12:43:27;102463.00;;;12.82;62.76
26443;BME280;5563;52.296;6.806;2023-04-08T12:46:00;102484.16;;;12.99;63.29
26443;BME280;5563;52.296;6.806;2023-04-08T12:48:28;102486.19;;;13.10;62.76
26443;BME280;5563;52.296;6.806;2023-04-08T12:51:01;102484.97;;;13.28;63.55
26443;BME280;5563;52.296;6.806;2023-04-08T12:53:28;102493.22;;;13.51;62.40
26443;BME280;5563;52.296;6.806;2023-04-08T12:56:02;102493.34;;;13.36;62.40
26443;BME280;5563;52.296;6.806;2023-04-08T12:58:29;102482.63;;;13.09;62.05
26443;BME280;5563;52.296;6.806;2023-04-08T13:01:02;102480.66;;;12.84;62.88
26443;BME280;5563;52.296;6.806;2023-04-08T13:03:30;102469.22;;;12.54;63.95
26443;BME280;5563;52.296;6.806;2023-04-08T13:06:04;102474.03;;;12.35;64.08
26443;BME280;5563;52.296;6.806;2023-04-08T13:08:31;102484.63;;;12.23;65.06
26443;BME280;5563;52.296;6.806;2023-04-08T13:10:58;102472.56;;;12.02;65.15
26443;BME280;5563;52.296;6.806;2023-04-08T13:13:31;102496.06;;;11.97;65.44
26443;BME280;5563;52.296;6.806;2023-04-08T13:15:59;102498.56;;;11.70;65.65
26443;BME280;5563;52.296;6.806;2023-04-08T13:18:33;102478.22;;;11.52;66.15
26443;BME280;5563;52.296;6.806;2023-04-08T13:21:00;102478.50;;;11.47;67.00
26443;BME280;5563;52.296;6.806;2023-04-08T13:23:34;102494.06;;;11.55;66.97
26443;BME280;5563;52.296;6.806;2023-04-08T13:26:08;102489.69;;;11.54;67.33
26443;BME280;5563;52.296;6.806;2023-04-08T13:28:44;102461.63;;;11.47;67.44
26443;BME280;5563;52.296;6.806;2023-04-08T13:31:25;102471.06;;;11.68;67.27
26443;BME280;5563;52.296;6.806;2023-04-08T13:33:59;102469.06;;;11.71;66.87
26443;BME280;5563;52.296;6.806;2023-04-08T13:36:26;102473.09;;;11.78;66.57
26443;BME280;5563;52.296;6.806;2023-04-08T13:39:03;102476.09;;;11.88;67.42
26443;BME280;5563;52.296;6.806;2023-04-08T13:41:30;102463.84;;;11.84;66.44
26443;BME280;5563;52.296;6.806;2023-04-08T13:44:04;102454.16;;;11.67;66.75
26443;BME280;5563;52.296;6.806;2023-04-08T13:46:38;102468.03;;;11.74;67.34